Time;durP1;ratioP1;P1;durP2;ratioP2;P2;SDS_P1;SDS_P2;PMS_P1;PMS_P2;Temp;Humidity;BMP_temperature;BMP_pressure;BME280_temperature;BME280_humidity;BME280_pressure;Samples;Min_cycle;Max_cycle;Signal;HPM_P1;HPM_P2
2021/12/02 00:02:06;;;;;;;11.37;6.60;;;;;;;;;;5056358;28;20481;-69
2021/12/02 00:04:38;;;;;;;8.47;6.50;;;;;;;;;;5056401;28;20825;-69
2021/12/02 00:07:08;;;;;;;8.80;6.30;;;;;;;;;;5047227;28;20544;-69
2021/12/02 00:09:37;;;;;;;9.53;7.17;;;;;;;;;;5051394;28;20231;-69
2021/12/02 00:12:06;;;;;;;9.40;6.60;;;;;;;;;;5056436;28;21036;-69
2021/12/02 00:14:40;;;;;;;7.80;6.60;;;;;;;;;;5056807;28;20290;-69
2021/12/02 00:17:13;;;;;;;7.93;6.40;;;;;;;;;;5061140;28;20449;-69
2021/12/02 00:22:28;;;;;;;9.47;6.80;;;;;;;;;;5061488;28;20548;-69
2021/12/02 00:25:00;;;;;;;10.70;7.30;;;;;;;;;;5059369;28;20456;-69
2021/12/02 00:27:29;;;;;;;14.33;8.43;;;;;;;;;;5056406;28;20214;-69
2021/12/02 00:29:59;;;;;;;11.83;7.90;;;;;;;;;;5057265;28;20306;-69
2021/12/02 00:32:28;;;;;;;13.40;8.40;;;;;;;;;;5059566;28;20281;-69
2021/12/02 00:34:57;;;;;;;13.80;8.77;;;;;;;;;;5060187;28;20445;-69
2021/12/02 00:37:27;;;;;;;12.67;7.77;;;;;;;;;;5041228;28;20454;-69
2021/12/02 00:39:57;;;;;;;10.80;8.30;;;;;;;;;;5056349;28;20467;-69
2021/12/02 00:42:26;;;;;;;10.10;7.90;;;;;;;;;;5046638;28;20568;-69
2021/12/02 00:44:54;;;;;;;13.97;9.10;;;;;;;;;;5057801;28;20459;-69
2021/12/02 00:47:22;;;;;;;16.67;9.27;;;;;;;;;;5054343;28;20462;-69
2021/12/02 00:49:50;;;;;;;13.93;8.40;;;;;;;;;;5058841;28;20823;-69
2021/12/02 00:52:20;;;;;;;12.63;7.60;;;;;;;;;;5057087;28;20455;-69
2021/12/02 00:54:48;;;;;;;12.37;7.53;;;;;;;;;;5060293;28;20468;-69
2021/12/02 00:57:18;;;;;;;13.30;7.93;;;;;;;;;;5059371;28;20449;-69
2021/12/02 00:59:48;;;;;;;15.70;9.47;;;;;;;;;;5059210;28;20555;-69
2021/12/02 01:02:17;;;;;;;14.83;9.00;;;;;;;;;;5041221;28;20504;-69
2021/12/02 01:04:45;;;;;;;9.57;7.47;;;;;;;;;;5052075;28;20895;-69
2021/12/02 01:07:13;;;;;;;12.67;8.33;;;;;;;;;;5059113;28;21059;-69
2021/12/02 01:09:41;;;;;;;13.23;8.30;;;;;;;;;;5059919;28;20457;-69
2021/12/02 01:12:09;;;;;;;13.83;8.60;;;;;;;;;;5059166;28;20473;-69
2021/12/02 01:14:39;;;;;;;10.00;7.90;;;;;;;;;;5058037;28;20460;-69
2021/12/02 01:17:07;;;;;;;10.80;7.67;;;;;;;;;;5060139;28;20447;-69
2021/12/02 01:19:35;;;;;;;14.00;9.23;;;;;;;;;;5057271;28;20469;-69
2021/12/02 01:22:03;;;;;;;11.33;8.07;;;;;;;;;;5059944;28;20481;-69
2021/12/02 01:24:33;;;;;;;15.90;8.57;;;;;;;;;;5059955;28;20936;-69
2021/12/02 01:27:03;;;;;;;13.07;7.70;;;;;;;;;;5056599;28;20461;-69
2021/12/02 01:29:33;;;;;;;11.47;8.60;;;;;;;;;;5057643;28;20473;-69
2021/12/02 01:32:06;;;;;;;13.53;9.77;;;;;;;;;;5056963;28;20454;-70
2021/12/02 01:34:34;;;;;;;14.57;9.60;;;;;;;;;;5059914;28;20441;-69
2021/12/02 01:37:03;;;;;;;14.57;8.40;;;;;;;;;;5054327;28;20541;-69
2021/12/02 01:39:31;;;;;;;12.93;8.57;;;;;;;;;;5057146;28;20466;-69
2021/12/02 01:42:00;;;;;;;13.47;8.60;;;;;;;;;;5059557;28;20481;-69
2021/12/02 01:44:28;;;;;;;10.57;7.97;;;;;;;;;;5058544;28;20463;-69
2021/12/02 01:46:57;;;;;;;14.47;9.03;;;;;;;;;;5059602;28;20445;-69
2021/12/02 01:49:30;;;;;;;10.87;8.07;;;;;;;;;;5059573;28;20461;-69
2021/12/02 01:52:00;;;;;;;11.13;7.33;;;;;;;;;;5059499;28;20520;-69
2021/12/02 01:54:28;;;;;;;12.00;8.47;;;;;;;;;;5046554;28;20532;-69
2021/12/02 01:57:04;;;;;;;17.03;10.80;;;;;;;;;;5056173;28;20457;-69
2021/12/02 01:59:34;;;;;;;13.30;8.97;;;;;;;;;;5057960;28;20477;-69
2021/12/02 02:02:04;;;;;;;15.77;8.93;;;;;;;;;;5055112;28;20487;-69
2021/12/02 02:04:34;;;;;;;12.17;8.27;;;;;;;;;;5057018;28;20531;-69
2021/12/02 02:07:03;;;;;;;15.30;9.03;;;;;;;;;;5044863;28;20458;-69
2021/12/02 02:09:32;;;;;;;13.90;9.27;;;;;;;;;;5059185;28;20471;-69
2021/12/02 02:12:01;;;;;;;13.50;9.43;;;;;;;;;;5059091;28;20480;-69
2021/12/02 02:14:30;;;;;;;11.27;8.83;;;;;;;;;;5058019;28;20933;-69
2021/12/02 02:17:00;;;;;;;14.20;9.73;;;;;;;;;;5058962;28;20451;-69
2021/12/02 02:19:30;;;;;;;15.13;9.57;;;;;;;;;;5050908;28;20480;-70
2021/12/02 02:22:00;;;;;;;16.83;10.37;;;;;;;;;;5054242;28;20910;-70
2021/12/02 02:24:29;;;;;;;15.47;10.23;;;;;;;;;;5056356;28;20453;-70
2021/12/02 02:26:57;;;;;;;14.67;9.97;;;;;;;;;;5055999;28;20556;-70
2021/12/02 02:29:25;;;;;;;13.87;8.57;;;;;;;;;;5057117;28;20473;-69
2021/12/02 02:31:53;;;;;;;15.33;10.33;;;;;;;;;;5056030;28;20956;-70
2021/12/02 02:34:22;;;;;;;15.43;10.30;;;;;;;;;;5055394;28;20456;-70
2021/12/02 02:36:52;;;;;;;16.53;10.57;;;;;;;;;;5055800;28;20458;-69
2021/12/02 02:39:22;;;;;;;13.37;10.37;;;;;;;;;;5047837;28;20479;-69
2021/12/02 02:41:56;;;;;;;19.40;10.63;;;;;;;;;;5053605;28;20454;-70
2021/12/02 02:44:25;;;;;;;18.57;11.53;;;;;;;;;;5052707;28;20457;-70
2021/12/02 02:46:54;;;;;;;15.17;10.27;;;;;;;;;;5057762;28;20457;-70
2021/12/02 02:49:21;;;;;;;14.03;10.00;;;;;;;;;;5056855;28;20476;-70
2021/12/02 02:51:50;;;;;;;17.00;10.70;;;;;;;;;;5058924;28;20445;-69
2021/12/02 02:54:19;;;;;;;14.83;10.13;;;;;;;;;;5058111;28;20430;-70
2021/12/02 02:56:51;;;;;;;16.27;10.53;;;;;;;;;;5053438;28;20490;-69
2021/12/02 02:59:27;;;;;;;14.80;10.33;;;;;;;;;;5052842;28;20497;-70
2021/12/02 03:02:04;;;;;;;15.87;10.23;;;;;;;;;;5056837;28;20461;-70
2021/12/02 03:04:38;;;;;;;16.90;9.40;;;;;;;;;;5059226;28;20944;-70
2021/12/02 03:07:10;;;;;;;16.47;9.73;;;;;;;;;;5057840;28;20891;-70
2021/12/02 03:09:50;;;;;;;12.57;9.90;;;;;;;;;;5053873;28;20473;-70
2021/12/02 03:12:24;;;;;;;13.80;9.10;;;;;;;;;;5059152;28;20469;-70
2021/12/02 03:16:37;;;;;;;12.27;8.83;;;;;;;;;;5055802;28;20198;-70
2021/12/02 03:17:44;;;;;;;22.80;9.97;;;;;;;;;;5055271;28;21010;-70
2021/12/02 03:20:13;;;;;;;14.00;9.20;;;;;;;;;;5055499;28;20455;-70
2021/12/02 03:22:41;;;;;;;13.13;9.33;;;;;;;;;;5055049;28;20520;-70
2021/12/02 03:25:09;;;;;;;14.50;9.80;;;;;;;;;;5057320;28;20670;-70
2021/12/02 03:27:39;;;;;;;14.13;9.90;;;;;;;;;;5055589;28;20457;-70
2021/12/02 03:30:08;;;;;;;15.07;10.60;;;;;;;;;;5055059;28;20532;-70
2021/12/02 03:32:37;;;;;;;19.30;10.17;;;;;;;;;;5058660;28;20444;-70
2021/12/02 03:35:06;;;;;;;13.70;9.57;;;;;;;;;;5057347;28;20449;-70
2021/12/02 03:37:34;;;;;;;16.70;10.07;;;;;;;;;;5054645;28;20234;-70
2021/12/02 03:40:02;;;;;;;14.30;9.83;;;;;;;;;;5056245;28;20484;-70
2021/12/02 03:42:30;;;;;;;13.47;9.67;;;;;;;;;;5054917;28;20453;-70
2021/12/02 03:44:59;;;;;;;14.27;9.67;;;;;;;;;;5052255;28;20221;-70
2021/12/02 03:47:27;;;;;;;13.17;9.10;;;;;;;;;;5052395;28;20203;-70
2021/12/02 03:49:55;;;;;;;13.53;9.83;;;;;;;;;;5056307;28;20304;-69
2021/12/02 03:52:23;;;;;;;12.50;9.60;;;;;;;;;;5055937;28;20928;-70
2021/12/02 03:54:51;;;;;;;17.40;10.40;;;;;;;;;;5056161;28;20444;-69
2021/12/02 03:57:19;;;;;;;13.40;9.53;;;;;;;;;;5052305;28;20457;-70
2021/12/02 03:59:47;;;;;;;17.30;10.97;;;;;;;;;;5052705;28;20484;-70
2021/12/02 04:02:16;;;;;;;17.33;10.10;;;;;;;;;;5055923;28;20354;-70
2021/12/02 04:04:45;;;;;;;16.63;10.73;;;;;;;;;;5053533;28;20981;-70
2021/12/02 04:07:13;;;;;;;20.70;11.17;;;;;;;;;;5055924;28;20440;-70
2021/12/02 04:09:43;;;;;;;16.17;10.93;;;;;;;;;;5054189;28;20566;-70
2021/12/02 04:12:17;;;;;;;15.43;10.33;;;;;;;;;;5056906;28;20469;-70
2021/12/02 04:14:50;;;;;;;12.83;9.47;;;;;;;;;;5052916;28;20988;-70
2021/12/02 04:17:29;;;;;;;14.90;10.37;;;;;;;;;;5056879;28;20437;-70
2021/12/02 04:19:57;;;;;;;16.57;10.63;;;;;;;;;;5050015;28;20310;-70
2021/12/02 04:22:25;;;;;;;17.43;10.03;;;;;;;;;;5056749;28;20447;-70
2021/12/02 04:24:52;;;;;;;13.80;9.97;;;;;;;;;;5040823;28;20489;-70
2021/12/02 04:27:20;;;;;;;13.67;9.40;;;;;;;;;;5057427;28;20210;-70
2021/12/02 04:29:48;;;;;;;13.27;9.50;;;;;;;;;;5056954;28;20462;-70
2021/12/02 04:32:16;;;;;;;13.70;9.77;;;;;;;;;;5057248;28;20455;-70
2021/12/02 04:34:46;;;;;;;16.23;9.90;;;;;;;;;;5046369;28;20457;-70
2021/12/02 04:37:14;;;;;;;14.67;9.37;;;;;;;;;;5050230;28;20460;-70
2021/12/02 04:39:42;;;;;;;14.23;9.00;;;;;;;;;;5056416;28;20552;-70
2021/12/02 04:42:10;;;;;;;14.00;10.17;;;;;;;;;;5057205;28;20444;-70
2021/12/02 04:44:38;;;;;;;15.27;9.57;;;;;;;;;;5056717;28;20546;-70
2021/12/02 04:47:05;;;;;;;16.77;10.03;;;;;;;;;;5056894;28;21016;-70
2021/12/02 04:49:33;;;;;;;15.10;9.03;;;;;;;;;;5043366;28;20223;-70
2021/12/02 04:52:03;;;;;;;12.77;8.57;;;;;;;;;;5055241;28;20213;-70
2021/12/02 04:54:35;;;;;;;10.40;8.13;;;;;;;;;;5077189;28;20633;-69
2021/12/02 04:57:04;;;;;;;11.83;8.77;;;;;;;;;;5076834;28;20810;-70
2021/12/02 04:59:31;;;;;;;10.53;8.77;;;;;;;;;;5076390;28;20592;-70
2021/12/02 05:02:00;;;;;;;10.87;7.93;;;;;;;;;;5079018;28;21005;-70
2021/12/02 05:04:28;;;;;;;15.43;9.37;;;;;;;;;;5065423;28;20480;-69
2021/12/02 05:06:56;;;;;;;13.97;9.27;;;;;;;;;;5054052;28;20465;-70
2021/12/02 05:09:25;;;;;;;14.27;9.20;;;;;;;;;;5057269;28;20479;-70
2021/12/02 05:11:53;;;;;;;13.03;9.03;;;;;;;;;;5060283;28;20473;-69
2021/12/02 05:14:21;;;;;;;13.13;9.63;;;;;;;;;;5059486;28;20469;-69
2021/12/02 05:16:49;;;;;;;15.80;10.50;;;;;;;;;;5049810;28;20445;-69
2021/12/02 05:19:17;;;;;;;16.13;10.50;;;;;;;;;;5061547;28;20460;-70
2021/12/02 05:21:45;;;;;;;14.23;10.33;;;;;;;;;;5058190;28;22131;-70
2021/12/02 05:24:13;;;;;;;15.07;10.70;;;;;;;;;;5068421;28;21003;-70
2021/12/02 05:26:42;;;;;;;17.10;10.67;;;;;;;;;;5058363;28;20447;-70
2021/12/02 05:29:10;;;;;;;16.20;11.47;;;;;;;;;;5061383;28;20854;-69
2021/12/02 05:31:39;;;;;;;16.80;10.50;;;;;;;;;;5059660;28;20526;-70
2021/12/02 05:34:07;;;;;;;17.33;11.60;;;;;;;;;;5075211;28;20472;-70
2021/12/02 05:36:35;;;;;;;13.73;10.27;;;;;;;;;;5051170;28;20454;-70
2021/12/02 05:39:03;;;;;;;17.27;10.77;;;;;;;;;;5057447;28;20481;-69
2021/12/02 05:41:31;;;;;;;16.83;11.30;;;;;;;;;;5059373;28;20442;-70
2021/12/02 05:44:01;;;;;;;18.47;11.77;;;;;;;;;;5059235;28;20481;-70
2021/12/02 05:46:29;;;;;;;17.40;11.13;;;;;;;;;;5059632;28;20524;-70
2021/12/02 05:48:57;;;;;;;17.67;11.97;;;;;;;;;;5059636;28;20523;-70
2021/12/02 05:51:25;;;;;;;18.73;12.10;;;;;;;;;;5055006;28;20529;-70
2021/12/02 05:53:53;;;;;;;17.37;11.73;;;;;;;;;;5058643;28;20460;-70
2021/12/02 05:56:21;;;;;;;18.20;11.47;;;;;;;;;;5059509;28;20441;-70
2021/12/02 05:58:49;;;;;;;17.10;10.93;;;;;;;;;;5059298;28;20473;-71
2021/12/02 06:01:19;;;;;;;16.70;11.33;;;;;;;;;;5059474;28;20448;-70
2021/12/02 06:03:47;;;;;;;14.17;10.03;;;;;;;;;;5059173;28;20496;-71
2021/12/02 06:06:17;;;;;;;17.50;10.73;;;;;;;;;;5045531;28;20824;-70
2021/12/02 06:08:45;;;;;;;13.87;10.40;;;;;;;;;;5059219;28;20465;-71
2021/12/02 06:11:13;;;;;;;14.50;10.83;;;;;;;;;;5054805;28;20460;-71
2021/12/02 06:13:42;;;;;;;16.87;10.60;;;;;;;;;;5057905;28;20483;-71
2021/12/02 06:16:10;;;;;;;17.20;10.07;;;;;;;;;;5058921;28;20908;-71
2021/12/02 06:18:39;;;;;;;15.77;9.80;;;;;;;;;;5058785;28;21245;-71
2021/12/02 06:21:07;;;;;;;18.90;10.43;;;;;;;;;;5054819;28;20965;-71
2021/12/02 06:23:36;;;;;;;18.97;10.13;;;;;;;;;;5059054;28;20451;-71
2021/12/02 06:26:04;;;;;;;12.30;9.23;;;;;;;;;;5057817;28;20492;-70
2021/12/02 06:28:32;;;;;;;13.47;9.30;;;;;;;;;;5058590;28;20461;-68
2021/12/02 06:31:02;;;;;;;14.50;9.33;;;;;;;;;;5058861;28;20460;-69
2021/12/02 06:33:30;;;;;;;14.43;10.30;;;;;;;;;;5058975;28;20528;-66
2021/12/02 06:35:59;;;;;;;15.33;10.27;;;;;;;;;;5052958;28;20812;-66
2021/12/02 06:38:27;;;;;;;24.70;14.83;;;;;;;;;;5056096;28;20473;-66
2021/12/02 06:40:56;;;;;;;20.00;13.00;;;;;;;;;;5060718;28;20461;-65
2021/12/02 06:43:24;;;;;;;17.00;10.83;;;;;;;;;;5054748;28;20449;-66
2021/12/02 06:45:52;;;;;;;18.53;10.17;;;;;;;;;;5057916;28;20925;-66
2021/12/02 06:48:20;;;;;;;19.10;10.73;;;;;;;;;;5058281;28;20469;-66
2021/12/02 06:50:48;;;;;;;16.70;10.50;;;;;;;;;;5046506;28;20824;-67
2021/12/02 06:53:19;;;;;;;15.13;9.63;;;;;;;;;;5047826;28;20880;-67
2021/12/02 06:55:48;;;;;;;18.07;11.57;;;;;;;;;;5044973;28;20457;-67
2021/12/02 06:58:16;;;;;;;15.33;11.00;;;;;;;;;;5045136;28;20460;-66
2021/12/02 07:00:44;;;;;;;16.27;9.93;;;;;;;;;;5043448;28;20986;-71
2021/12/02 07:03:12;;;;;;;14.97;10.33;;;;;;;;;;5049555;28;20439;-72
2021/12/02 07:05:40;;;;;;;13.13;9.70;;;;;;;;;;5043888;28;20478;-71
2021/12/02 07:08:09;;;;;;;12.33;9.90;;;;;;;;;;5045606;28;20971;-72
2021/12/02 07:10:42;;;;;;;16.07;10.50;;;;;;;;;;5068144;28;20543;-72
2021/12/02 07:13:11;;;;;;;14.07;10.67;;;;;;;;;;5057113;28;20457;-72
2021/12/02 07:15:44;;;;;;;15.10;9.37;;;;;;;;;;5055740;28;20529;-72
2021/12/02 07:18:15;;;;;;;13.27;9.37;;;;;;;;;;5057372;28;20898;-72
2021/12/02 07:20:44;;;;;;;13.53;9.93;;;;;;;;;;5056271;28;20454;-72
2021/12/02 07:23:12;;;;;;;11.20;7.87;;;;;;;;;;5048286;28;20465;-72
2021/12/02 07:25:43;;;;;;;12.53;9.43;;;;;;;;;;5053011;28;20601;-72
2021/12/02 07:28:12;;;;;;;15.23;10.33;;;;;;;;;;5051912;28;20462;-72
2021/12/02 07:30:40;;;;;;;13.37;9.50;;;;;;;;;;5057425;28;20968;-72
2021/12/02 07:33:09;;;;;;;14.20;9.67;;;;;;;;;;5049248;28;20893;-72
2021/12/02 07:35:37;;;;;;;18.73;11.10;;;;;;;;;;5073718;28;20502;-72
2021/12/02 07:38:06;;;;;;;20.77;12.67;;;;;;;;;;5045390;28;20499;-71
2021/12/02 07:40:36;;;;;;;20.23;12.73;;;;;;;;;;5048094;28;20566;-72
2021/12/02 07:43:06;;;;;;;16.37;11.20;;;;;;;;;;5052177;28;20453;-72
2021/12/02 07:45:35;;;;;;;19.03;12.40;;;;;;;;;;5048094;28;20492;-71
2021/12/02 07:48:04;;;;;;;38.00;19.57;;;;;;;;;;5056984;28;20988;-72
2021/12/02 07:50:34;;;;;;;27.03;18.03;;;;;;;;;;5056991;28;20802;-72
2021/12/02 07:53:06;;;;;;;24.57;14.80;;;;;;;;;;5062829;28;20443;-72
2021/12/02 07:55:36;;;;;;;19.73;12.23;;;;;;;;;;5051580;28;20484;-72
2021/12/02 07:58:07;;;;;;;19.63;10.97;;;;;;;;;;5045709;28;20508;-72
2021/12/02 08:00:35;;;;;;;22.87;13.80;;;;;;;;;;5045320;28;20231;-72
2021/12/02 08:03:07;;;;;;;19.53;11.43;;;;;;;;;;5044603;28;20605;-72
2021/12/02 08:05:35;;;;;;;19.37;12.57;;;;;;;;;;5043410;28;20261;-72
2021/12/02 08:08:03;;;;;;;22.93;13.37;;;;;;;;;;5037090;28;20255;-72
2021/12/02 08:10:32;;;;;;;19.03;11.93;;;;;;;;;;5064402;28;20200;-72
2021/12/02 08:13:02;;;;;;;19.63;12.07;;;;;;;;;;5054786;28;20238;-72
2021/12/02 08:15:32;;;;;;;21.27;12.13;;;;;;;;;;5057244;28;20210;-73
2021/12/02 08:18:00;;;;;;;16.00;10.77;;;;;;;;;;5057111;28;20305;-72
2021/12/02 08:20:29;;;;;;;16.63;10.77;;;;;;;;;;5048547;28;20234;-73
2021/12/02 08:22:57;;;;;;;18.90;11.13;;;;;;;;;;5057077;28;20206;-72
2021/12/02 08:25:27;;;;;;;16.57;10.53;;;;;;;;;;5055344;28;20777;-72
2021/12/02 08:27:55;;;;;;;15.20;9.90;;;;;;;;;;5055191;28;20229;-72
2021/12/02 08:30:26;;;;;;;18.43;10.27;;;;;;;;;;5049583;28;20217;-72
2021/12/02 08:32:56;;;;;;;17.23;9.97;;;;;;;;;;5051156;28;20273;-72
2021/12/02 08:35:25;;;;;;;13.30;10.83;;;;;;;;;;5042968;28;20234;-72
2021/12/02 08:37:57;;;;;;;22.33;10.43;;;;;;;;;;5056335;28;20549;-72
2021/12/02 08:40:30;;;;;;;17.20;12.07;;;;;;;;;;5059602;28;20203;-72
2021/12/02 08:42:59;;;;;;;15.40;9.90;;;;;;;;;;5060282;28;20211;-73
2021/12/02 08:45:29;;;;;;;14.67;9.63;;;;;;;;;;5060723;28;20257;-72
2021/12/02 08:47:59;;;;;;;14.10;9.23;;;;;;;;;;5060541;28;20229;-72
2021/12/02 08:50:28;;;;;;;15.07;9.77;;;;;;;;;;5058140;28;20217;-72
2021/12/02 08:52:56;;;;;;;17.07;7.83;;;;;;;;;;5071178;28;20198;-72
2021/12/02 08:55:24;;;;;;;14.70;9.27;;;;;;;;;;5055775;28;20698;-71
2021/12/02 08:57:53;;;;;;;16.40;8.97;;;;;;;;;;5048226;28;20211;-71
2021/12/02 09:00:22;;;;;;;12.50;8.20;;;;;;;;;;5048261;28;20199;-73
2021/12/02 09:02:50;;;;;;;11.80;7.93;;;;;;;;;;5048273;28;20195;-71
2021/12/02 09:05:20;;;;;;;13.47;8.67;;;;;;;;;;5047556;28;21791;-72
2021/12/02 09:07:48;;;;;;;15.60;8.40;;;;;;;;;;5047838;28;20200;-72
2021/12/02 09:10:17;;;;;;;14.10;8.20;;;;;;;;;;5052681;28;20203;-72
2021/12/02 09:12:46;;;;;;;13.80;9.13;;;;;;;;;;5058681;28;20235;-71
2021/12/02 09:15:14;;;;;;;13.97;8.23;;;;;;;;;;5060005;28;20606;-71
2021/12/02 09:17:43;;;;;;;14.10;7.60;;;;;;;;;;5052461;28;20199;-71
2021/12/02 09:20:12;;;;;;;12.73;6.97;;;;;;;;;;5047391;28;20253;-71
2021/12/02 09:22:42;;;;;;;12.67;7.10;;;;;;;;;;5060022;28;20293;-71
2021/12/02 09:25:11;;;;;;;9.93;7.40;;;;;;;;;;5058847;28;20210;-71
2021/12/02 09:27:39;;;;;;;9.23;6.33;;;;;;;;;;5054255;28;20227;-72
2021/12/02 09:30:08;;;;;;;11.63;6.10;;;;;;;;;;5059911;28;20245;-71
2021/12/02 09:32:38;;;;;;;14.83;6.83;;;;;;;;;;5061401;28;20221;-71
2021/12/02 09:35:07;;;;;;;5.93;4.30;;;;;;;;;;5079722;28;20320;-71
2021/12/02 09:37:35;;;;;;;5.03;2.37;;;;;;;;;;5059020;28;20226;-71
2021/12/02 09:40:08;;;;;;;6.17;2.33;;;;;;;;;;5058103;28;20203;-71
2021/12/02 09:42:37;;;;;;;5.47;3.00;;;;;;;;;;5053522;28;20213;-71
2021/12/02 09:45:08;;;;;;;8.70;2.77;;;;;;;;;;5058606;28;20206;-71
2021/12/02 09:47:38;;;;;;;7.50;2.67;;;;;;;;;;5048170;28;20243;-71
2021/12/02 09:50:11;;;;;;;7.93;2.70;;;;;;;;;;5054163;28;20260;-71
2021/12/02 09:52:39;;;;;;;3.37;2.10;;;;;;;;;;5059340;28;20726;-71
2021/12/02 09:55:16;;;;;;;6.37;2.93;;;;;;;;;;5047721;28;20235;-70
2021/12/02 09:57:49;;;;;;;5.17;2.33;;;;;;;;;;5045841;28;20226;-68
2021/12/02 10:00:19;;;;;;;5.83;2.40;;;;;;;;;;5045954;28;20210;-71
2021/12/02 10:02:54;;;;;;;2.87;2.10;;;;;;;;;;5046809;28;20536;-72
2021/12/02 10:05:37;;;;;;;5.33;2.43;;;;;;;;;;5045470;28;20203;-71
2021/12/02 10:08:08;;;;;;;2.27;1.60;;;;;;;;;;5042873;28;20708;-72
2021/12/02 10:10:51;;;;;;;2.47;1.77;;;;;;;;;;5058185;28;20245;-71
2021/12/02 10:13:26;;;;;;;3.97;2.17;;;;;;;;;;5058435;28;20276;-72
2021/12/02 10:16:05;;;;;;;4.90;2.00;;;;;;;;;;5054989;28;20242;-71
2021/12/02 10:18:49;;;;;;;5.30;2.70;;;;;;;;;;5046939;28;20230;-72
2021/12/02 10:21:24;;;;;;;2.40;1.90;;;;;;;;;;5057398;28;20290;-71
2021/12/02 10:24:00;;;;;;;2.03;1.57;;;;;;;;;;5058638;28;20612;-71
2021/12/02 10:26:34;;;;;;;4.20;1.80;;;;;;;;;;5055974;28;20353;-72
2021/12/02 10:29:07;;;;;;;4.30;2.73;;;;;;;;;;5049186;28;20690;-72
2021/12/02 10:31:37;;;;;;;3.40;1.63;;;;;;;;;;5044291;28;20199;-72
2021/12/02 10:34:07;;;;;;;2.90;1.30;;;;;;;;;;5038643;28;20241;-72
2021/12/02 10:36:36;;;;;;;2.13;1.40;;;;;;;;;;5040142;28;20663;-72
2021/12/02 10:39:09;;;;;;;3.97;1.73;;;;;;;;;;5055819;28;20226;-72
2021/12/02 10:41:42;;;;;;;2.03;1.70;;;;;;;;;;5056537;28;20222;-71
2021/12/02 10:44:18;;;;;;;3.53;1.60;;;;;;;;;;5057867;28;20585;-71
2021/12/02 10:46:53;;;;;;;2.80;1.63;;;;;;;;;;5058320;28;20309;-70
2021/12/02 10:49:41;;;;;;;3.23;1.30;;;;;;;;;;5057705;28;20258;-71
2021/12/02 10:52:10;;;;;;;2.93;1.50;;;;;;;;;;5053748;28;20289;-71
2021/12/02 10:54:40;;;;;;;2.20;1.23;;;;;;;;;;5075918;28;20206;-71
2021/12/02 10:57:10;;;;;;;3.73;1.40;;;;;;;;;;5053070;28;20202;-71
2021/12/02 10:59:43;;;;;;;2.37;1.37;;;;;;;;;;5049383;28;20631;-72
2021/12/02 11:02:22;;;;;;;4.07;1.27;;;;;;;;;;5046633;28;20283;-73
2021/12/02 11:04:53;;;;;;;5.00;1.70;;;;;;;;;;5045934;28;20251;-73
2021/12/02 11:07:26;;;;;;;2.90;1.50;;;;;;;;;;5039572;28;20223;-73
2021/12/02 11:09:55;;;;;;;2.50;1.50;;;;;;;;;;5057440;28;20223;-73
2021/12/02 11:12:26;;;;;;;4.13;1.90;;;;;;;;;;5057380;28;20571;-73
2021/12/02 11:15:12;;;;;;;5.53;1.80;;;;;;;;;;5058091;28;20294;-73
2021/12/02 11:17:42;;;;;;;3.40;1.30;;;;;;;;;;5057569;28;20700;-73
2021/12/02 11:20:11;;;;;;;2.47;1.47;;;;;;;;;;5057527;28;20674;-74
2021/12/02 11:22:39;;;;;;;3.63;1.60;;;;;;;;;;5054180;28;20210;-74
2021/12/02 11:25:09;;;;;;;1.60;1.50;;;;;;;;;;5056809;28;20207;-74
2021/12/02 11:27:39;;;;;;;2.60;1.80;;;;;;;;;;5056944;28;20227;-74
2021/12/02 11:30:08;;;;;;;3.30;1.27;;;;;;;;;;5057721;28;20282;-75
2021/12/02 11:32:39;;;;;;;3.57;1.70;;;;;;;;;;5057782;28;20217;-74
2021/12/02 11:35:10;;;;;;;3.00;1.57;;;;;;;;;;5056128;28;20202;-74
2021/12/02 11:37:39;;;;;;;2.57;1.87;;;;;;;;;;5040464;28;20296;-73
2021/12/02 11:40:09;;;;;;;1.57;1.10;;;;;;;;;;5045490;28;20221;-70
2021/12/02 11:42:38;;;;;;;3.90;1.17;;;;;;;;;;5045262;28;20206;-73
2021/12/02 11:45:07;;;;;;;1.20;1.10;;;;;;;;;;5045353;28;20710;-73
2021/12/02 11:47:36;;;;;;;2.37;1.20;;;;;;;;;;5048354;28;20320;-72
2021/12/02 11:50:04;;;;;;;1.80;1.17;;;;;;;;;;5054153;28;20218;-71
2021/12/02 11:52:32;;;;;;;0.93;0.80;;;;;;;;;;5048084;28;20283;-72
2021/12/02 11:55:00;;;;;;;2.03;1.20;;;;;;;;;;5049215;28;20211;-72
2021/12/02 11:57:30;;;;;;;2.77;1.67;;;;;;;;;;5076385;28;20231;-72
2021/12/02 11:59:59;;;;;;;1.00;0.90;;;;;;;;;;5077290;28;20236;-72
2021/12/02 12:02:27;;;;;;;1.47;1.00;;;;;;;;;;5044904;28;20647;-72
2021/12/02 12:04:58;;;;;;;1.30;1.20;;;;;;;;;;5051424;28;20214;-72
2021/12/02 12:07:38;;;;;;;0.93;0.80;;;;;;;;;;5043934;28;20598;-72
2021/12/02 12:10:16;;;;;;;3.80;0.80;;;;;;;;;;5057279;28;20214;-72
2021/12/02 12:12:44;;;;;;;1.73;0.93;;;;;;;;;;5060508;28;20324;-72
2021/12/02 12:15:36;;;;;;;1.80;1.03;;;;;;;;;;5061060;28;20212;-72
2021/12/02 12:18:11;;;;;;;3.67;1.13;;;;;;;;;;5047658;28;20235;-73
2021/12/02 12:20:55;;;;;;;2.20;1.43;;;;;;;;;;5054610;28;20219;-73
2021/12/02 12:23:44;;;;;;;1.40;1.27;;;;;;;;;;5059692;28;20824;-73
2021/12/02 12:26:13;;;;;;;4.80;1.27;;;;;;;;;;5042729;28;20261;-72
2021/12/02 12:28:56;;;;;;;3.10;1.00;;;;;;;;;;5057035;28;20222;-72
2021/12/02 12:31:24;;;;;;;1.40;1.17;;;;;;;;;;5048179;28;20210;-72
2021/12/02 12:33:54;;;;;;;1.70;0.90;;;;;;;;;;5061132;28;20223;-72
2021/12/02 12:36:40;;;;;;;0.97;0.87;;;;;;;;;;5060796;28;20473;-73
2021/12/02 12:39:17;;;;;;;0.80;0.80;;;;;;;;;;5050271;28;20231;-73
2021/12/02 12:42:06;;;;;;;0.53;0.50;;;;;;;;;;5060530;28;20630;-73
2021/12/02 12:44:47;;;;;;;2.27;1.03;;;;;;;;;;5060237;28;20293;-72
2021/12/02 12:47:16;;;;;;;1.30;1.20;;;;;;;;;;5048518;28;20463;-73
2021/12/02 12:49:46;;;;;;;1.80;0.90;;;;;;;;;;5052315;28;20866;-73
2021/12/02 12:52:16;;;;;;;0.57;0.57;;;;;;;;;;5058146;28;20500;-72
2021/12/02 12:55:04;;;;;;;0.77;0.77;;;;;;;;;;5073177;28;20440;-73
2021/12/02 12:57:32;;;;;;;1.10;1.00;;;;;;;;;;5079706;28;20460;-72
2021/12/02 13:00:00;;;;;;;2.83;0.87;;;;;;;;;;5080168;28;20499;-72
2021/12/02 13:02:32;;;;;;;0.27;0.27;;;;;;;;;;5048092;28;20568;-72
2021/12/02 13:05:02;;;;;;;0.70;0.70;;;;;;;;;;5046966;28;20507;-74
2021/12/02 13:08:05;;;;;;;0.83;0.80;;;;;;;;;;5047183;28;20481;-73
2021/12/02 13:10:33;;;;;;;1.90;0.70;;;;;;;;;;5049665;28;20511;-73
2021/12/02 13:13:01;;;;;;;6.30;0.80;;;;;;;;;;5056506;28;20477;-73
2021/12/02 13:15:30;;;;;;;0.70;0.70;;;;;;;;;;5060113;28;20499;-74
2021/12/02 13:18:00;;;;;;;6.37;1.17;;;;;;;;;;5059751;28;20440;-73
2021/12/02 13:20:31;;;;;;;2.67;1.70;;;;;;;;;;5045920;28;20462;-73
2021/12/02 13:23:18;;;;;;;0.73;0.73;;;;;;;;;;5043397;28;20481;-75
2021/12/02 13:25:47;;;;;;;2.80;0.70;;;;;;;;;;5043361;28;20457;-75
2021/12/02 13:28:16;;;;;;;1.33;0.87;;;;;;;;;;5042957;28;20508;-74
2021/12/02 13:30:47;;;;;;;0.70;0.70;;;;;;;;;;5046560;28;20438;-74
2021/12/02 13:33:16;;;;;;;0.70;0.70;;;;;;;;;;5039505;28;20439;-73
2021/12/02 13:35:46;;;;;;;0.80;0.80;;;;;;;;;;5042832;28;20999;-73
2021/12/02 13:38:16;;;;;;;2.07;1.20;;;;;;;;;;5052653;28;20532;-73
2021/12/02 13:40:45;;;;;;;1.27;1.17;;;;;;;;;;5059436;28;20457;-72
2021/12/02 13:43:14;;;;;;;0.70;0.70;;;;;;;;;;5059534;28;20445;-71
2021/12/02 13:45:42;;;;;;;1.03;0.90;;;;;;;;;;5052097;28;20457;-71
2021/12/02 13:48:14;;;;;;;4.33;1.43;;;;;;;;;;5057641;28;20486;-73
2021/12/02 13:50:44;;;;;;;1.63;1.50;;;;;;;;;;5043578;28;20512;-72
2021/12/02 13:53:13;;;;;;;0.70;0.70;;;;;;;;;;5052831;28;20458;-73
2021/12/02 13:55:43;;;;;;;2.63;1.53;;;;;;;;;;5055652;28;20458;-72
2021/12/02 13:58:18;;;;;;;0.97;0.97;;;;;;;;;;5055560;28;20473;-72
2021/12/02 14:00:52;;;;;;;1.47;1.33;;;;;;;;;;5046728;28;20464;-73
2021/12/02 14:03:24;;;;;;;1.50;1.20;;;;;;;;;;5047281;28;20454;-72
2021/12/02 14:05:55;;;;;;;2.43;2.10;;;;;;;;;;5044015;28;20515;-72
2021/12/02 14:08:25;;;;;;;0.63;0.63;;;;;;;;;;5042188;28;20491;-72
2021/12/02 14:10:54;;;;;;;1.20;0.90;;;;;;;;;;5055076;28;20438;-73
2021/12/02 14:13:23;;;;;;;1.20;1.20;;;;;;;;;;5044324;28;20533;-72
2021/12/02 14:15:57;;;;;;;1.73;0.80;;;;;;;;;;5047717;28;20910;-73
2021/12/02 14:18:28;;;;;;;1.23;0.70;;;;;;;;;;5045326;28;20965;-72
2021/12/02 14:20:58;;;;;;;0.90;0.90;;;;;;;;;;5047173;28;20443;-73
2021/12/02 14:23:33;;;;;;;1.10;1.10;;;;;;;;;;5039613;28;20540;-72
2021/12/02 14:26:02;;;;;;;0.83;0.83;;;;;;;;;;5044610;28;20454;-72
2021/12/02 14:28:32;;;;;;;2.40;1.03;;;;;;;;;;5045057;28;20490;-72
2021/12/02 14:31:01;;;;;;;3.33;1.93;;;;;;;;;;5049015;28;20448;-72
2021/12/02 14:33:30;;;;;;;2.00;0.90;;;;;;;;;;5057770;28;20537;-72
2021/12/02 14:35:59;;;;;;;1.43;1.10;;;;;;;;;;5058274;28;20881;-72
2021/12/02 14:38:29;;;;;;;2.83;1.07;;;;;;;;;;5046892;28;20512;-73
2021/12/02 14:41:07;;;;;;;1.30;1.20;;;;;;;;;;5058548;28;20473;-72
2021/12/02 14:43:35;;;;;;;2.03;1.10;;;;;;;;;;5050274;28;20961;-72
2021/12/02 14:46:14;;;;;;;1.50;1.40;;;;;;;;;;5047971;28;20465;-72
2021/12/02 14:48:43;;;;;;;2.40;1.23;;;;;;;;;;5055253;28;20852;-73
2021/12/02 14:51:12;;;;;;;2.40;1.40;;;;;;;;;;5037891;28;20553;-72
2021/12/02 14:53:41;;;;;;;1.17;1.00;;;;;;;;;;5048816;28;20458;-72